Weather at Bill & Hillary Clinton National Airport/Adams Field

Public forecast

Using degrees Fahrenheit for public forecast. Weather courtesy of forecast.io.

Current aviation weather report (METAR) for Bill & Hillary Clinton National Airport/Adams Field

2024/05/25 22:53 (retrieved 1 hour ago)

KLIT 252253Z 110/08KT 10SM BKN027 31/25 A0000

Aviation forecast (TAF) for Bill & Hillary Clinton National Airport/Adams Field

2024/05/25 18:33 Ammendment (retrieved 5 hours ago)

TAF KLIT 251730Z 2518/2618 19006KT P6SM BKN030 FM252030 19008KT P6SM BKN040 FM260000 17006KT P6SM BKN250 FM260600 17005KT P6SM OVC250 FM261400 20012G22KT P6SM SCT250 AMD NOT SKED